Time;durP1;ratioP1;P1;durP2;ratioP2;P2;SDS_P1;SDS_P2;PMS_P1;PMS_P2;Temp;Humidity;BMP_temperature;BMP_pressure;BME280_temperature;BME280_humidity;BME280_pressure;Samples;Min_cycle;Max_cycle;Signal;HPM_P1;HPM_P2
2021/08/26 00:07:29;;;;;;;14.98;13.38;;;;;;;22.42;71.02;99367.03;5051451;28;20036;-36
2021/08/26 00:09:55;;;;;;;16.83;14.02;;;;;;;23.01;68.13;99367.56;5051934;28;20346;-37
2021/08/26 00:12:20;;;;;;;16.70;13.88;;;;;;;22.56;69.91;99367.09;5051604;28;20024;-36
2021/08/26 00:14:46;;;;;;;16.90;13.73;;;;;;;22.53;69.99;99359.56;5050076;28;20025;-36
2021/08/26 00:17:11;;;;;;;16.25;13.65;;;;;;;22.42;71.20;99358.91;5051581;28;20021;-37
2021/08/26 00:19:38;;;;;;;18.85;13.98;;;;;;;22.62;69.88;99352.41;5051356;28;20025;-38
2021/08/26 00:22:04;;;;;;;18.48;14.05;;;;;;;23.37;66.95;99345.28;5050952;28;20028;-36
2021/08/26 00:24:30;;;;;;;19.15;14.77;;;;;;;23.05;68.33;99343.38;5051671;28;20082;-36
2021/08/26 00:26:55;;;;;;;17.42;14.23;;;;;;;22.56;70.56;99343.53;5032619;28;20025;-36
2021/08/26 00:29:21;;;;;;;18.42;14.65;;;;;;;22.46;71.05;99349.06;5031358;28;20095;-36
2021/08/26 00:31:46;;;;;;;17.27;14.63;;;;;;;22.44;70.78;99351.28;5031327;28;20021;-37
2021/08/26 00:34:11;;;;;;;21.27;15.02;;;;;;;22.64;69.68;99358.34;5031575;28;20025;-37
2021/08/26 00:36:37;;;;;;;18.65;15.48;;;;;;;22.87;68.92;99353.13;5031460;28;20410;-37
2021/08/26 00:39:02;;;;;;;20.77;16.05;;;;;;;22.59;69.80;99352.97;5031443;28;20077;-37
2021/08/26 00:41:28;;;;;;;18.17;15.50;;;;;;;22.37;70.88;99354.34;5031339;28;20026;-37
2021/08/26 00:43:53;;;;;;;19.80;15.40;;;;;;;22.31;71.62;99360.91;5031207;28;20017;-37
2021/08/26 00:46:19;;;;;;;19.35;15.73;;;;;;;22.74;69.68;99354.66;5031222;28;20025;-37
2021/08/26 00:48:45;;;;;;;20.50;16.77;;;;;;;23.26;66.75;99352.00;5031123;28;20029;-37
2021/08/26 00:51:11;;;;;;;19.35;16.55;;;;;;;22.98;68.18;99351.84;5031089;28;20025;-37
2021/08/26 00:53:39;;;;;;;19.52;16.45;;;;;;;22.19;71.99;99349.69;5030866;28;20462;-38
2021/08/26 00:56:04;;;;;;;21.90;15.98;;;;;;;22.16;72.06;99351.06;5030861;28;20029;-37
2021/08/26 00:58:30;;;;;;;18.40;15.52;;;;;;;22.10;72.36;99354.13;5029838;28;20465;-36
2021/08/26 01:01:00;;;;;;;20.40;15.77;;;;;;;22.66;69.68;99342.59;5028535;28;20029;-36
2021/08/26 01:03:32;;;;;;;20.75;16.45;;;;;;;22.44;70.88;99343.94;5029489;28;20121;-37
2021/08/26 01:05:59;;;;;;;21.92;16.92;;;;;;;22.09;72.39;99345.19;5029493;28;20502;-37
2021/08/26 01:08:36;;;;;;;19.58;15.57;;;;;;;22.12;71.98;99350.00;5029291;28;20045;-37
2021/08/26 01:11:02;;;;;;;16.85;14.82;;;;;;;22.14;72.07;99344.31;5013110;28;20022;-37
2021/08/26 01:13:38;;;;;;;19.35;15.85;;;;;;;22.89;69.03;99330.03;5029748;28;20049;-36
2021/08/26 01:16:06;;;;;;;20.98;16.25;;;;;;;22.43;71.07;99333.41;5031182;28;20342;-36
2021/08/26 01:18:33;;;;;;;22.50;16.73;;;;;;;22.16;72.05;99325.84;5031240;28;20082;-37
2021/08/26 01:20:58;;;;;;;18.77;15.82;;;;;;;21.82;72.52;99300.53;5030979;28;20083;-38
2021/08/26 01:23:24;;;;;;;18.55;15.80;;;;;;;22.11;71.19;99326.75;5031302;28;20457;-37
2021/08/26 01:25:50;;;;;;;18.25;15.90;;;;;;;22.56;69.21;99331.84;5029601;28;20025;-36
2021/08/26 01:28:15;;;;;;;20.25;15.80;;;;;;;22.12;70.92;99331.03;5013354;28;20013;-36
2021/08/26 01:30:43;;;;;;;18.55;16.48;;;;;;;21.97;72.21;99331.22;5029645;28;20406;-36
2021/08/26 01:33:08;;;;;;;19.65;15.93;;;;;;;21.90;72.49;99331.59;5029799;28;20021;-36
2021/08/26 01:35:34;;;;;;;20.40;16.98;;;;;;;22.14;71.22;99334.31;5030948;28;20452;-37
2021/08/26 01:37:59;;;;;;;21.33;17.55;;;;;;;22.11;71.50;99336.78;5029666;28;20159;-36
2021/08/26 01:40:37;;;;;;;20.83;17.45;;;;;;;21.75;73.43;99331.78;5029576;28;20037;-36
2021/08/26 01:43:12;;;;;;;22.73;17.15;;;;;;;21.66;74.03;99334.28;5030940;28;20108;-37
2021/08/26 01:45:43;;;;;;;23.27;16.92;;;;;;;21.92;72.57;99339.44;5031009;28;20337;-37
2021/08/26 01:48:09;;;;;;;20.73;17.20;;;;;;;22.64;69.31;99331.22;5030750;28;20025;-37
2021/08/26 01:50:35;;;;;;;21.13;17.85;;;;;;;22.43;70.33;99325.28;5030939;28;20036;-37
2021/08/26 01:53:01;;;;;;;21.92;17.40;;;;;;;22.13;71.84;99337.28;5030771;28;20040;-37
2021/08/26 01:55:26;;;;;;;21.65;17.45;;;;;;;22.13;71.58;99329.16;5030588;28;20017;-37
2021/08/26 01:57:52;;;;;;;19.55;16.80;;;;;;;22.00;71.77;99322.53;5030845;28;20033;-37
2021/08/26 02:00:17;;;;;;;20.40;17.35;;;;;;;22.31;70.42;99322.97;5030707;28;20033;-37
2021/08/26 02:02:43;;;;;;;18.88;16.52;;;;;;;21.85;72.29;99324.31;5030662;28;20033;-37
2021/08/26 02:05:09;;;;;;;21.75;16.20;;;;;;;21.81;72.03;99319.78;5030611;28;20080;-37
2021/08/26 02:07:34;;;;;;;23.15;17.15;;;;;;;21.60;72.99;99321.91;5030623;28;20026;-37
2021/08/26 02:09:59;;;;;;;18.05;16.10;;;;;;;21.66;73.01;99315.34;5030951;28;20030;-37
2021/08/26 02:12:25;;;;;;;21.50;16.45;;;;;;;22.35;69.20;99320.50;5030679;28;20032;-37
2021/08/26 02:14:50;;;;;;;18.45;16.13;;;;;;;21.70;72.03;99310.94;5030557;28;20060;-37
2021/08/26 02:17:16;;;;;;;20.55;15.95;;;;;;;21.62;72.13;99303.47;5030735;28;20025;-37
2021/08/26 02:19:41;;;;;;;18.50;15.98;;;;;;;21.61;72.23;99293.72;5030481;28;20030;-37
2021/08/26 02:22:07;;;;;;;19.17;15.70;;;;;;;21.64;72.36;99290.44;5030232;28;20032;-37
2021/08/26 02:24:32;;;;;;;18.60;15.75;;;;;;;22.52;68.18;99288.25;5030877;28;20021;-37
2021/08/26 02:26:58;;;;;;;19.75;15.50;;;;;;;21.59;71.74;99294.03;5049638;28;20029;-37
2021/08/26 02:29:24;;;;;;;20.92;15.43;;;;;;;21.50;72.95;99284.91;5050108;28;20078;-37
2021/08/26 02:31:49;;;;;;;22.52;16.70;;;;;;;21.39;72.68;99281.47;5050426;28;20449;-38
2021/08/26 02:34:15;;;;;;;18.05;15.52;;;;;;;21.54;72.16;99279.75;5050262;28;20374;-37
2021/08/26 02:36:40;;;;;;;20.90;16.02;;;;;;;22.23;69.15;99281.03;5050184;28;20106;-37
2021/08/26 02:39:07;;;;;;;19.65;14.95;;;;;;;21.74;70.52;99292.22;5050205;28;20048;-36
2021/08/26 02:41:34;;;;;;;21.48;15.77;;;;;;;21.45;72.09;99290.38;5050210;28;20218;-36
2021/08/26 02:43:59;;;;;;;19.08;15.45;;;;;;;21.45;72.07;99298.50;5050241;28;20059;-37
2021/08/26 02:46:24;;;;;;;22.05;15.95;;;;;;;21.40;72.33;99295.78;5054137;28;20025;-36
2021/08/26 02:48:50;;;;;;;17.98;15.30;;;;;;;22.36;68.38;99300.44;5054020;28;20029;-37
2021/08/26 02:51:15;;;;;;;17.73;14.65;;;;;;;21.50;70.99;99300.38;5053865;28;20017;-36
2021/08/26 02:53:41;;;;;;;17.73;15.02;;;;;;;21.41;71.35;99302.84;5053974;28;20118;-37
2021/08/26 02:56:06;;;;;;;15.70;14.02;;;;;;;21.42;71.45;99304.47;5053912;28;20469;-37
2021/08/26 02:58:32;;;;;;;17.60;15.23;;;;;;;21.54;70.84;99304.09;5053822;28;20017;-37
2021/08/26 03:00:57;;;;;;;19.05;14.02;;;;;;;22.20;67.65;99306.03;5053759;28;20028;-36
2021/08/26 03:03:23;;;;;;;18.77;14.07;;;;;;;21.39;70.69;99303.13;5053552;28;20480;-37
2021/08/26 03:05:48;;;;;;;17.58;13.30;;;;;;;21.35;71.01;99296.66;5053620;28;20035;-37
2021/08/26 03:08:15;;;;;;;17.08;13.48;;;;;;;21.26;70.78;99306.50;5053470;28;20056;-37
2021/08/26 03:10:41;;;;;;;20.88;13.82;;;;;;;21.93;68.18;99311.25;5053229;28;20040;-37
2021/08/26 03:13:06;;;;;;;15.65;12.73;;;;;;;21.52;69.29;99309.00;5053097;28;20060;-37
2021/08/26 03:15:33;;;;;;;16.65;13.38;;;;;;;21.14;70.55;99314.19;5053228;28;20071;-37
2021/08/26 03:17:58;;;;;;;15.68;12.88;;;;;;;21.21;70.77;99301.13;5053352;28;20033;-37
2021/08/26 03:20:24;;;;;;;17.50;12.52;;;;;;;21.15;70.46;99305.78;5052951;28;20044;-37
2021/08/26 03:22:49;;;;;;;15.57;12.80;;;;;;;22.00;67.54;99311.69;5053308;28;20029;-37
2021/08/26 03:25:15;;;;;;;18.42;12.68;;;;;;;21.40;69.66;99301.22;5053267;28;20013;-37
2021/08/26 03:27:40;;;;;;;15.15;12.07;;;;;;;21.24;69.92;99303.25;5053179;28;20065;-37
2021/08/26 03:30:06;;;;;;;15.95;12.30;;;;;;;21.05;70.34;99305.88;5053235;28;20028;-36
2021/08/26 03:32:33;;;;;;;14.57;11.95;;;;;;;21.04;70.76;99306.97;5052820;28;20035;-36
2021/08/26 03:34:58;;;;;;;14.35;12.40;;;;;;;21.63;67.84;99305.91;5052622;28;20025;-36
2021/08/26 03:37:24;;;;;;;14.35;11.65;;;;;;;21.14;69.63;99312.28;5052948;28;20032;-36
2021/08/26 03:39:49;;;;;;;15.95;11.65;;;;;;;20.98;70.26;99310.78;5042628;28;20025;-37
2021/08/26 03:42:15;;;;;;;14.35;11.30;;;;;;;20.99;70.53;99307.00;5033015;28;20342;-37
2021/08/26 03:44:40;;;;;;;15.98;11.65;;;;;;;20.95;70.00;99303.25;5034546;28;20103;-38
2021/08/26 03:47:06;;;;;;;18.20;12.20;;;;;;;21.71;67.34;99304.44;5038956;28;20604;-37
2021/08/26 03:49:31;;;;;;;14.45;11.93;;;;;;;21.24;69.28;99303.25;5046199;28;20445;-36
2021/08/26 03:51:56;;;;;;;17.08;12.02;;;;;;;21.11;70.17;99303.94;5036666;28;20025;-37
2021/08/26 03:54:22;;;;;;;13.65;11.40;;;;;;;21.10;70.28;99316.66;5033080;28;20072;-37
2021/08/26 03:56:47;;;;;;;15.63;11.52;;;;;;;21.35;68.97;99315.63;5031556;28;20116;-37
2021/08/26 03:59:13;;;;;;;14.45;11.93;;;;;;;21.95;66.48;99325.31;5032039;28;20638;-36
2021/08/26 04:01:39;;;;;;;13.90;12.10;;;;;;;21.39;68.85;99319.34;5030736;28;20021;-36
2021/08/26 04:04:04;;;;;;;16.45;12.25;;;;;;;21.48;68.57;99317.69;5030363;28;20021;-37
2021/08/26 04:06:30;;;;;;;14.45;11.93;;;;;;;21.44;68.32;99319.34;5031729;28;20056;-36
2021/08/26 04:08:55;;;;;;;15.10;12.40;;;;;;;21.71;68.28;99323.41;5031611;28;20061;-36
2021/08/26 04:11:21;;;;;;;17.65;13.65;;;;;;;22.34;66.35;99337.88;5031726;28;20532;-37
2021/08/26 04:13:46;;;;;;;19.20;15.18;;;;;;;22.39;65.91;99329.66;5031605;28;20029;-36
2021/08/26 04:16:12;;;;;;;20.48;15.02;;;;;;;21.84;67.75;99327.34;5031700;28;20033;-37
2021/08/26 04:18:37;;;;;;;18.23;14.73;;;;;;;21.87;67.73;99334.88;5031365;28;20151;-37
2021/08/26 04:21:02;;;;;;;23.15;14.77;;;;;;;22.05;67.67;99339.53;5031478;28;20024;-37
2021/08/26 04:23:28;;;;;;;18.05;13.93;;;;;;;22.75;65.38;99343.53;5031522;28;20405;-37
2021/08/26 04:25:53;;;;;;;20.52;15.07;;;;;;;22.77;65.44;99335.09;5031370;28;20025;-36
2021/08/26 04:28:19;;;;;;;17.33;14.07;;;;;;;22.59;66.35;99334.00;5031266;28;20478;-37
2021/08/26 04:30:44;;;;;;;21.27;14.07;;;;;;;22.62;66.85;99331.50;5031311;28;20032;-36
2021/08/26 04:33:10;;;;;;;17.77;13.77;;;;;;;22.81;65.34;99317.94;5031008;28;20029;-36
2021/08/26 04:35:35;;;;;;;23.45;13.20;;;;;;;23.54;62.35;99309.44;5031123;28;20033;-38
2021/08/26 04:38:00;;;;;;;20.25;13.63;;;;;;;23.61;61.54;99299.78;5031119;28;20028;-38
2021/08/26 04:40:26;;;;;;;17.98;13.52;;;;;;;23.30;62.51;99299.50;5031102;28;20025;-36
2021/08/26 04:42:51;;;;;;;15.95;12.77;;;;;;;23.14;63.67;99298.19;5030906;28;20030;-36
2021/08/26 04:45:17;;;;;;;16.15;12.75;;;;;;;23.34;63.35;99303.28;5031004;28;20084;-36
2021/08/26 04:47:42;;;;;;;15.13;12.95;;;;;;;23.65;61.74;99297.25;5030822;28;20021;-36
2021/08/26 04:50:08;;;;;;;16.75;12.52;;;;;;;24.73;59.12;99295.00;5030875;28;20378;-37
2021/08/26 04:52:34;;;;;;;15.90;12.32;;;;;;;24.18;59.36;99293.25;5030559;28;20086;-37
2021/08/26 04:54:59;;;;;;;14.88;12.15;;;;;;;24.19;58.59;99287.47;5048403;28;20071;-37
2021/08/26 04:57:25;;;;;;;14.40;11.65;;;;;;;24.46;57.92;99288.53;5050130;28;20029;-37
2021/08/26 04:59:50;;;;;;;13.00;10.40;;;;;;;24.46;58.12;99295.88;5050345;28;20354;-36
2021/08/26 05:02:15;;;;;;;13.50;10.40;;;;;;;25.44;56.31;99288.94;5050276;28;20029;-37
2021/08/26 05:04:41;;;;;;;13.00;10.68;;;;;;;24.99;56.44;99273.44;5050528;28;20438;-37
2021/08/26 05:07:06;;;;;;;13.00;10.63;;;;;;;24.85;56.74;99298.00;5050293;28;20025;-36
2021/08/26 05:09:32;;;;;;;12.98;10.93;;;;;;;24.30;57.91;99295.44;5050642;28;20055;-39
2021/08/26 05:12:00;;;;;;;18.85;10.95;;;;;;;24.54;57.41;99287.84;5049595;28;20021;-38
2021/08/26 05:14:26;;;;;;;16.10;11.05;;;;;;;25.15;56.00;99296.44;5051615;28;20029;-37
2021/08/26 05:16:52;;;;;;;18.70;11.57;;;;;;;24.49;58.34;99287.94;5051234;28;20459;-36
2021/08/26 05:19:17;;;;;;;12.68;11.40;;;;;;;24.21;59.54;99273.59;5050089;28;20037;-37
2021/08/26 05:21:43;;;;;;;17.90;12.52;;;;;;;24.10;60.48;99289.31;5051210;28;20052;-37
2021/08/26 05:24:08;;;;;;;17.70;11.77;;;;;;;24.67;59.13;99291.59;5051759;28;20021;-38
2021/08/26 05:26:34;;;;;;;15.00;11.98;;;;;;;25.41;56.01;99292.28;5050717;28;20033;-39
2021/08/26 05:28:59;;;;;;;15.57;12.23;;;;;;;25.13;56.87;99290.50;5050553;28;20024;-37
2021/08/26 05:31:25;;;;;;;17.02;11.82;;;;;;;24.76;57.70;99286.25;5051731;28;20035;-44
2021/08/26 05:33:50;;;;;;;13.27;11.60;;;;;;;24.88;57.76;99283.75;5051149;28;20221;-38
2021/08/26 05:36:16;;;;;;;16.80;11.50;;;;;;;24.81;57.55;99291.56;5051399;28;20480;-39
2021/08/26 05:38:41;;;;;;;14.73;12.20;;;;;;;25.69;55.05;99284.72;5051658;28;20043;-38
2021/08/26 05:41:07;;;;;;;15.25;11.85;;;;;;;25.30;56.20;99278.13;5051388;28;20492;-40
2021/08/26 05:43:32;;;;;;;14.23;11.60;;;;;;;25.63;55.68;99275.06;5051223;28;20036;-40
2021/08/26 05:45:58;;;;;;;14.60;10.85;;;;;;;26.05;54.93;99284.50;5050620;28;20373;-37
2021/08/26 05:48:23;;;;;;;16.88;10.27;;;;;;;26.65;52.62;99282.97;5050640;28;20032;-42
2021/08/26 05:50:49;;;;;;;14.80;9.65;;;;;;;27.65;50.72;99272.00;5051200;28;20036;-37
2021/08/26 05:53:14;;;;;;;12.50;10.23;;;;;;;27.78;49.14;99275.63;5050259;28;20388;-36
2021/08/26 05:55:39;;;;;;;13.85;10.10;;;;;;;27.73;48.38;99279.34;5049798;28;20032;-36
2021/08/26 05:58:05;;;;;;;15.45;9.60;;;;;;;27.89;48.46;99290.53;5049931;28;20388;-37
2021/08/26 06:00:30;;;;;;;15.85;10.30;;;;;;;28.13;47.48;99283.66;5049631;28;20035;-36
2021/08/26 06:02:56;;;;;;;11.65;9.07;;;;;;;28.98;45.78;99290.72;5049224;28;20112;-37
2021/08/26 06:05:21;;;;;;;14.18;9.13;;;;;;;28.77;45.68;99293.47;5049274;28;20017;-37
2021/08/26 06:07:47;;;;;;;13.55;9.68;;;;;;;28.81;45.76;99294.44;5049303;28;20507;-37
2021/08/26 06:10:13;;;;;;;13.77;9.10;;;;;;;28.77;46.03;99286.09;5049343;28;20083;-38
2021/08/26 06:12:39;;;;;;;13.55;9.15;;;;;;;28.55;44.84;99283.69;5049280;28;20104;-37
2021/08/26 06:15:05;;;;;;;11.07;8.88;;;;;;;28.34;46.18;99275.47;5047921;28;20036;-37
2021/08/26 06:17:31;;;;;;;10.45;8.52;;;;;;;28.30;46.07;99272.59;5049490;28;20025;-35
2021/08/26 06:19:56;;;;;;;14.48;10.10;;;;;;;27.98;46.79;99258.47;5051022;28;20025;-37
2021/08/26 06:22:22;;;;;;;10.13;8.10;;;;;;;28.67;44.99;99259.09;5053167;28;20392;-37
2021/08/26 06:24:47;;;;;;;9.82;8.13;;;;;;;29.27;43.59;99258.88;5053167;28;20021;-37
2021/08/26 06:27:12;;;;;;;9.95;7.90;;;;;;;29.17;44.11;99255.41;5053104;28;20115;-37
2021/08/26 06:29:38;;;;;;;10.45;8.18;;;;;;;29.13;44.38;99261.91;5053123;28;20029;-36
2021/08/26 06:32:04;;;;;;;10.82;8.00;;;;;;;29.24;43.65;99268.53;5053090;28;20182;-37
2021/08/26 06:34:29;;;;;;;12.63;8.30;;;;;;;29.22;43.90;99273.56;5053235;28;20443;-37
2021/08/26 06:36:55;;;;;;;12.60;8.63;;;;;;;29.48;43.03;99270.53;5053194;28;20548;-36
2021/08/26 06:39:20;;;;;;;10.82;8.70;;;;;;;28.92;43.93;99264.66;5048297;28;20470;-38
2021/08/26 06:41:45;;;;;;;12.13;8.55;;;;;;;28.62;44.95;99273.81;5043465;28;20420;-36
2021/08/26 06:44:11;;;;;;;11.00;8.32;;;;;;;28.91;44.47;99271.31;5040672;28;20025;-38
2021/08/26 06:46:36;;;;;;;10.48;8.00;;;;;;;29.21;43.35;99267.28;5036369;28;20029;-37
2021/08/26 06:49:02;;;;;;;12.27;9.10;;;;;;;29.21;44.07;99267.28;5043242;28;20434;-37
2021/08/26 06:51:27;;;;;;;11.93;8.55;;;;;;;28.68;44.86;99276.34;5039242;28;20033;-38
2021/08/26 06:53:53;;;;;;;12.13;8.98;;;;;;;28.46;45.63;99259.94;5041287;28;20029;-35
2021/08/26 06:56:18;;;;;;;14.00;8.75;;;;;;;28.58;45.54;99283.84;5041935;28;20442;-37
2021/08/26 06:58:44;;;;;;;9.48;8.48;;;;;;;29.14;44.89;99275.25;5035938;28;20064;-36
2021/08/26 07:01:09;;;;;;;10.13;8.77;;;;;;;30.07;42.51;99269.28;5031331;28;20040;-37
2021/08/26 07:03:35;;;;;;;14.18;9.15;;;;;;;29.49;43.55;99269.38;5032740;28;20025;-37
2021/08/26 07:06:00;;;;;;;11.45;8.40;;;;;;;29.78;43.12;99276.63;5032457;28;20021;-37
2021/08/26 07:08:26;;;;;;;10.10;8.73;;;;;;;29.81;43.18;99295.09;5031633;28;20056;-50
2021/08/26 07:10:51;;;;;;;9.40;8.40;;;;;;;30.46;41.74;99293.56;5032558;28;20128;-51
2021/08/26 07:13:16;;;;;;;10.68;8.80;;;;;;;30.72;41.03;99293.13;5032502;28;20389;-49
2021/08/26 07:15:42;;;;;;;10.88;8.55;;;;;;;31.19;40.29;99278.72;5032818;28;20045;-50
2021/08/26 07:18:07;;;;;;;12.00;8.73;;;;;;;31.13;40.39;99263.63;5032856;28;20029;-50
2021/08/26 07:20:33;;;;;;;9.75;8.48;;;;;;;31.15;40.03;99280.59;5032753;28;20405;-47
2021/08/26 07:22:59;;;;;;;9.88;8.48;;;;;;;30.85;40.57;99300.16;5032975;28;20017;-50
2021/08/26 07:25:24;;;;;;;10.98;8.43;;;;;;;30.83;40.90;99294.22;5039240;28;20126;-51
2021/08/26 07:27:49;;;;;;;10.93;8.30;;;;;;;30.25;42.15;99296.44;5052370;28;20032;-48
2021/08/26 07:30:15;;;;;;;12.30;9.00;;;;;;;29.81;42.23;99311.56;5052186;28;20017;-47
2021/08/26 07:32:41;;;;;;;12.90;9.13;;;;;;;29.32;43.34;99308.75;5052332;28;20025;-49
2021/08/26 07:35:07;;;;;;;14.02;8.93;;;;;;;29.23;42.95;99297.88;5052407;28;20028;-50
2021/08/26 07:37:32;;;;;;;10.57;9.00;;;;;;;30.01;41.59;99296.13;5051647;28;20541;-51
2021/08/26 07:39:57;;;;;;;9.57;8.20;;;;;;;29.31;43.20;99301.66;5052588;28;20121;-49
2021/08/26 07:42:23;;;;;;;12.20;8.98;;;;;;;28.91;44.58;99293.22;5052363;28;20035;-49
2021/08/26 07:44:48;;;;;;;78.57;13.07;;;;;;;28.26;45.85;99280.66;5052078;28;20102;-47
2021/08/26 07:47:14;;;;;;;38.30;10.13;;;;;;;28.16;46.34;99277.50;5051846;28;20400;-51
2021/08/26 07:49:39;;;;;;;13.15;9.07;;;;;;;28.68;45.18;99277.16;5050297;28;20013;-50
2021/08/26 07:52:05;;;;;;;13.88;9.48;;;;;;;28.17;46.07;99266.25;5051920;28;20039;-49
2021/08/26 07:54:30;;;;;;;19.58;9.43;;;;;;;28.41;45.92;99276.53;5051702;28;20100;-49
2021/08/26 07:56:57;;;;;;;12.35;8.57;;;;;;;28.60;45.71;99286.25;5051047;28;20361;-47
2021/08/26 07:59:23;;;;;;;14.35;9.02;;;;;;;29.12;44.83;99284.94;5051456;28;20551;-48
2021/08/26 08:01:49;;;;;;;13.15;9.20;;;;;;;29.76;42.94;99269.88;5051248;28;20024;-49
2021/08/26 08:04:14;;;;;;;11.02;8.35;;;;;;;29.57;43.27;99263.00;5051678;28;20563;-48
2021/08/26 08:06:40;;;;;;;13.95;8.75;;;;;;;29.57;43.62;99267.69;5051459;28;20029;-50
2021/08/26 08:09:05;;;;;;;12.80;9.25;;;;;;;30.07;42.72;99269.28;5051075;28;20076;-51
2021/08/26 08:11:31;;;;;;;12.82;8.73;;;;;;;30.20;41.31;99228.91;5051319;28;20139;-47
2021/08/26 08:13:56;;;;;;;11.55;7.90;;;;;;;31.45;39.35;99253.44;5051099;28;20477;-50
2021/08/26 08:16:22;;;;;;;10.18;7.80;;;;;;;30.55;41.18;99248.34;5051223;28;20094;-48
2021/08/26 08:18:47;;;;;;;11.25;8.20;;;;;;;30.71;40.37;99236.59;5051386;28;20025;-48
2021/08/26 08:21:13;;;;;;;10.55;8.00;;;;;;;30.97;39.43;99225.16;5051261;28;20033;-47
2021/08/26 08:23:38;;;;;;;8.82;7.57;;;;;;;31.28;39.73;99224.41;5050576;28;20025;-49
2021/08/26 08:26:10;;;;;;;9.73;7.50;;;;;;;31.83;37.13;99215.47;5038820;28;20025;-50
2021/08/26 08:28:35;;;;;;;10.20;7.32;;;;;;;31.12;38.73;99238.13;5030874;28;20036;-50
2021/08/26 08:31:01;;;;;;;11.00;7.40;;;;;;;31.54;37.66;99240.34;5031531;28;20025;-50
2021/08/26 08:33:26;;;;;;;9.80;7.97;;;;;;;31.30;38.63;99244.06;5030924;28;20036;-47
2021/08/26 08:35:51;;;;;;;8.73;7.28;;;;;;;31.96;36.53;99244.44;5030916;28;20095;-48
2021/08/26 08:38:17;;;;;;;8.52;7.63;;;;;;;31.74;37.35;99249.47;5030615;28;20029;-47
2021/08/26 08:40:44;;;;;;;7.72;6.88;;;;;;;31.35;37.64;99256.75;5030779;28;20029;-51
2021/08/26 08:43:10;;;;;;;9.55;6.90;;;;;;;31.61;36.84;99247.97;5029147;28;20179;-49
2021/08/26 08:45:35;;;;;;;10.35;7.50;;;;;;;32.07;35.30;99240.00;5031212;28;20478;-48
2021/08/26 08:48:04;;;;;;;7.85;7.03;;;;;;;32.13;35.24;99240.53;5031049;28;20041;-48
2021/08/26 08:50:29;;;;;;;;;;;;;;;33.05;34.01;99239.97;5030406;28;20088;-51
2021/08/26 08:52:55;;;;;;;9.05;6.63;;;;;;;32.41;35.54;99234.81;5029355;28;20349;-47
2021/08/26 08:55:20;;;;;;;8.00;7.18;;;;;;;31.46;36.87;99224.84;5029409;28;20029;-47
2021/08/26 08:57:46;;;;;;;9.30;7.35;;;;;;;31.75;35.63;99209.00;5030410;28;20401;-48
2021/08/26 09:00:13;;;;;;;9.32;7.22;;;;;;;32.05;35.13;99212.06;5030772;28;20029;-49
2021/08/26 09:02:39;;;;;;;8.75;7.57;;;;;;;32.20;35.00;99213.16;5030418;28;20029;-47
2021/08/26 09:05:05;;;;;;;8.43;7.45;;;;;;;31.27;36.60;99214.53;5030639;28;20148;-48
2021/08/26 09:07:32;;;;;;;7.57;6.88;;;;;;;31.31;36.42;99222.88;5030534;28;20463;-51
2021/08/26 09:09:58;;;;;;;8.23;7.30;;;;;;;31.60;37.15;99205.13;5030463;28;20041;-48
2021/08/26 09:12:42;;;;;;;7.90;7.10;;;;;;;32.48;35.51;99206.63;5030306;28;20079;-49
2021/08/26 09:15:18;;;;;;;7.97;7.13;;;;;;;32.68;34.23;99205.47;5030191;28;20033;-50
2021/08/26 09:17:45;;;;;;;9.32;7.22;;;;;;;32.25;35.15;99204.63;5030504;28;20110;-48
2021/08/26 09:20:13;;;;;;;10.98;7.50;;;;;;;32.01;35.40;99207.63;5029938;28;20026;-50
2021/08/26 09:22:38;;;;;;;11.32;7.68;;;;;;;31.94;36.10;99202.75;5030184;28;20358;-48
2021/08/26 09:25:04;;;;;;;11.45;7.93;;;;;;;32.18;35.54;99204.47;5029844;28;20040;-46
2021/08/26 09:27:37;;;;;;;8.50;7.60;;;;;;;33.01;34.11;99195.00;5029960;28;20046;-47
2021/08/26 09:30:07;;;;;;;8.32;7.43;;;;;;;32.01;36.51;99196.63;5030172;28;20103;-48
2021/08/26 09:32:37;;;;;;;12.13;7.60;;;;;;;31.86;36.13;99196.28;5030082;28;20076;-51
2021/08/26 09:35:22;;;;;;;9.15;7.63;;;;;;;32.01;35.67;99180.91;5030032;28;20021;-49
2021/08/26 09:37:53;;;;;;;9.43;7.50;;;;;;;31.95;35.46;99188.63;5029564;28;20484;-50
2021/08/26 09:40:28;;;;;;;9.25;7.78;;;;;;;32.70;34.48;99192.13;5028017;28;20112;-50
2021/08/26 09:43:00;;;;;;;11.27;7.75;;;;;;;31.77;35.61;99190.19;5029117;28;20452;-51
2021/08/26 09:45:28;;;;;;;8.77;7.03;;;;;;;31.26;37.62;99188.19;5029209;28;20049;-50
2021/08/26 09:48:07;;;;;;;10.23;7.60;;;;;;;31.03;38.10;99199.03;5029346;28;20109;-51
2021/08/26 09:50:51;;;;;;;8.65;7.38;;;;;;;31.02;38.09;99200.19;5029128;28;20284;-51
2021/08/26 09:53:21;;;;;;;8.80;7.72;;;;;;;31.85;36.16;99191.94;5029239;28;20025;-49
2021/08/26 09:55:53;;;;;;;10.30;7.90;;;;;;;31.65;35.76;99177.38;5032652;28;20405;-50
2021/08/26 09:58:23;;;;;;;9.32;8.00;;;;;;;30.49;39.24;99183.88;5033408;28;20032;-49
2021/08/26 10:00:49;;;;;;;10.52;8.18;;;;;;;30.45;38.41;99177.50;5033531;28;20558;-50
2021/08/26 10:03:15;;;;;;;11.05;8.02;;;;;;;30.42;38.54;99175.44;5033843;28;20041;-49
2021/08/26 10:05:43;;;;;;;12.75;8.60;;;;;;;30.99;37.00;99176.97;5033508;28;20029;-52
2021/08/26 10:08:12;;;;;;;10.02;8.30;;;;;;;30.16;38.52;99176.66;5033476;28;20061;-50
2021/08/26 10:10:41;;;;;;;9.50;8.23;;;;;;;29.85;38.57;99174.56;5032423;28;20159;-51
2021/08/26 10:13:06;;;;;;;10.40;8.30;;;;;;;29.61;39.44;99186.38;5031985;28;20060;-50
2021/08/26 10:15:35;;;;;;;9.50;8.50;;;;;;;29.91;39.53;99186.91;5033175;28;20033;-50
2021/08/26 10:18:00;;;;;;;10.02;8.48;;;;;;;30.18;38.65;99196.31;5033662;28;20136;-49
2021/08/26 10:20:26;;;;;;;9.40;8.23;;;;;;;29.67;40.87;99201.44;5033481;28;20033;-50
2021/08/26 10:22:52;;;;;;;14.13;8.48;;;;;;;29.11;43.21;99207.44;5033405;28;20033;-54
2021/08/26 10:25:17;;;;;;;16.92;10.55;;;;;;;28.85;47.48;99216.75;5033372;28;20482;-52
2021/08/26 10:27:44;;;;;;;15.93;10.65;;;;;;;28.70;49.20;99225.59;5031818;28;20030;-50
2021/08/26 10:30:16;;;;;;;20.52;10.73;;;;;;;28.63;48.67;99225.34;5033736;28;20030;-49
2021/08/26 10:32:41;;;;;;;16.55;11.15;;;;;;;27.30;53.45;99242.06;5032175;28;20029;-50
2021/08/26 10:35:14;;;;;;;15.15;11.30;;;;;;;26.86;55.23;99257.75;5033130;28;20025;-49
2021/08/26 10:37:49;;;;;;;16.77;11.02;;;;;;;26.69;55.66;99261.31;5033084;28;20027;-49
2021/08/26 10:40:33;;;;;;;19.95;15.70;;;;;;;26.99;54.76;99264.94;5033257;28;20361;-49
2021/08/26 10:42:58;;;;;;;18.50;13.55;;;;;;;26.34;57.46;99280.38;5033156;28;20033;-50
2021/08/26 10:45:27;;;;;;;12.88;11.20;;;;;;;26.06;57.75;99282.59;5033378;28;20021;-47
2021/08/26 10:47:53;;;;;;;12.63;11.02;;;;;;;25.46;58.78;99284.78;5033265;28;20048;-49
2021/08/26 10:50:21;;;;;;;12.95;10.70;;;;;;;25.54;59.47;99291.38;5033002;28;20136;-49
2021/08/26 10:52:56;;;;;;;14.07;11.18;;;;;;;25.97;58.51;99309.84;5033464;28;20029;-49
2021/08/26 10:55:37;;;;;;;12.63;11.32;;;;;;;25.22;60.77;99315.03;5032843;28;20035;-49
2021/08/26 10:58:20;;;;;;;16.70;11.15;;;;;;;24.37;63.61;99295.81;5032971;28;20056;-51
2021/08/26 11:00:46;;;;;;;14.73;10.85;;;;;;;23.75;66.40;99307.13;5031550;28;20033;-48
2021/08/26 11:03:33;;;;;;;14.90;11.48;;;;;;;24.01;66.53;99318.34;5032705;28;20529;-53
2021/08/26 11:05:59;;;;;;;14.82;10.77;;;;;;;23.65;66.64;99291.84;5031026;28;20095;-51
2021/08/26 11:08:28;;;;;;;15.95;11.20;;;;;;;24.05;66.41;99322.03;5031371;28;20083;-49
2021/08/26 11:10:54;;;;;;;16.80;11.25;;;;;;;24.06;66.75;99339.16;5033070;28;20033;-49
2021/08/26 11:13:29;;;;;;;13.57;10.95;;;;;;;24.18;64.38;99317.72;5031231;28;20033;-51
2021/08/26 11:15:55;;;;;;;13.65;10.35;;;;;;;23.54;66.21;99318.38;5032512;28;20033;-48
2021/08/26 11:18:30;;;;;;;16.73;10.60;;;;;;;23.62;65.85;99316.88;5032558;28;20040;-49
2021/08/26 11:20:55;;;;;;;13.07;10.23;;;;;;;23.30;67.30;99313.09;5032716;28;20119;-48
2021/08/26 11:23:40;;;;;;;15.95;11.18;;;;;;;24.28;63.83;99306.59;5031602;28;20056;-50
2021/08/26 11:26:44;;;;;;;13.48;10.57;;;;;;;23.80;65.72;99304.34;5031751;28;20478;-51